Impacts TAF Board INFO
FOR SITUATIONAL AWARENESS. NOT TO BE USED FOR FLIGHT PLANNING PURPOSES.
IDs:

KFLL - Ft Lauderdale-Hollyw, FL, US

Issued at 0301 UTC 20 Aug 2018
Updated at 0331 UTC 20 Aug 2018
Potential Impact None Slight Moderate High
Time<<20/16Z 20/17Z 20/18Z 20/19Z 20/20Z 20/21Z 20/22Z 20/23Z 21/00Z 21/01Z 21/02Z 21/03Z 21/04Z>>
Type PRVL PRVL PRVL PRVL PRVL PRVL PRVL PRVL PRVL PRVL PRVL PRVL PRVL
VIS >6 >6 >6 >6 >6 >6 >6 >6 >6 >6 >6 >6 >6
CIG 80 80 25 25 25 25 25 25 25 25 25 250 250
Cover BKN BKN BKN BKN BKN BKN BKN BKN BKN BKN BKN BKN BKN
FltCat VFR VFR MVFR MVFR MVFR MVFR MVFR MVFR MVFR MVFR MVFR VFR VFR
WX VCSH VCSH VCSH VCSH VCSH VCSH VCSH VCSH VCSH VCSH VCSH -- --
WDir 130 130 100 100 100 100 100 100 100 100 100 VRB VRB
WSpd 9 9 11 11 11 11 11 11 11 11 11 4 4
WGst -- -- -- -- -- -- -- -- -- -- -- -- --

Raw TAF
KFLL 200301Z 2003/2106 VRB04KT P6SM SCT030 SCT080 SCT250
  FM201500 13009KT P6SM VCSH SCT030 BKN080
  FM201800 10011KT P6SM VCSH BKN025 BKN060
  FM210300 VRB04KT P6SM SCT030 SCT080 BKN250


METAR Board
Radar Display
Forecast Discussion

FOR SITUATIONAL AWARENESS. NOT TO BE USED FOR FLIGHT PLANNING PURPOSES.